Time;durP1;ratioP1;P1;durP2;ratioP2;P2;SDS_P1;SDS_P2;PMS_P1;PMS_P2;Temp;Humidity;BMP_temperature;BMP_pressure;BME280_temperature;BME280_humidity;BME280_pressure;Samples;Min_cycle;Max_cycle;Signal;HPM_P1;HPM_P2
2021/06/27 19:25:53;;;;;;;8.15;5.88;;;;;;;20.09;43.70;100136.16;3639853;39;20459;-60
2021/06/27 19:28:21;;;;;;;8.43;5.57;;;;;;;20.61;43.58;100137.31;3632510;39;20038;-60
2021/06/27 19:30:48;;;;;;;6.60;5.40;;;;;;;21.10;43.36;100134.09;3634281;39;20046;-59
2021/06/27 19:33:17;;;;;;;5.82;5.18;;;;;;;21.48;42.35;100138.91;3633586;39;20035;-60
2021/06/27 19:35:44;;;;;;;17.83;15.30;;;;;;;21.73;42.09;100137.63;3630233;39;20041;-60
2021/06/27 19:38:12;;;;;;;11.05;7.13;;;;;;;21.93;41.81;100149.25;3632040;39;20651;-55
2021/06/27 19:40:41;;;;;;;10.75;6.30;;;;;;;22.03;41.64;100144.78;3633702;39;20047;-61
2021/06/27 19:43:13;;;;;;;11.07;6.50;;;;;;;22.12;41.89;100149.34;3632306;39;20194;-61
2021/06/27 19:45:41;;;;;;;10.10;5.90;;;;;;;22.20;41.85;100146.84;3633154;39;20038;-60
2021/06/27 19:48:08;;;;;;;8.15;4.85;;;;;;;22.25;42.00;100143.75;3631928;39;20046;-60
2021/06/27 19:50:36;;;;;;;5.25;4.60;;;;;;;22.27;42.25;100148.97;3632608;39;20039;-54
2021/06/27 19:53:05;;;;;;;5.05;4.10;;;;;;;22.28;42.14;100147.97;3629684;39;20045;-53
2021/06/27 19:55:33;;;;;;;8.15;3.72;;;;;;;22.25;42.46;100145.59;3630281;39;20371;-55
2021/06/27 19:58:04;;;;;;;5.85;4.25;;;;;;;22.22;42.30;100149.38;3629998;39;20419;-60
2021/06/27 20:00:59;;;;;;;7.43;5.25;;;;;;;22.18;42.64;100143.47;3628295;39;20417;-61
2021/06/27 20:03:35;;;;;;;;;;;;;;;22.23;41.98;100140.38;3628733;39;20038;-57
2021/06/27 20:06:04;;;;;;;13.48;5.82;;;;;;;22.25;42.30;100143.75;3626992;39;19935;-57
2021/06/27 20:08:36;;;;;;;10.05;6.47;;;;;;;22.18;42.89;100146.13;3627873;39;20034;-55
2021/06/27 20:11:11;;;;;;;11.45;6.82;;;;;;;22.14;42.68;100146.53;3628621;39;20041;-58
2021/06/27 20:13:39;;;;;;;5.95;4.32;;;;;;;22.11;42.69;100155.69;3627632;39;20307;-52
2021/06/27 20:16:07;;;;;;;9.35;5.07;;;;;;;22.07;42.81;100159.59;3627549;39;20079;-52
2021/06/27 20:18:35;;;;;;;8.38;5.25;;;;;;;22.03;42.93;100166.13;3626725;39;20051;-53
2021/06/27 20:23:37;;;;;;;10.50;7.25;;;;;;;21.92;43.44;100164.41;3612350;39;20494;-58
2021/06/27 20:26:05;;;;;;;9.15;6.93;;;;;;;21.86;43.89;100164.06;3603941;39;20048;-57
2021/06/27 20:28:32;;;;;;;10.32;6.45;;;;;;;21.80;44.33;100169.94;3603581;39;20042;-50
2021/06/27 20:31:02;;;;;;;11.80;5.53;;;;;;;21.74;44.47;100167.81;3603369;39;20045;-57
2021/06/27 20:33:30;;;;;;;7.75;5.45;;;;;;;21.63;45.22;100162.53;3595346;39;20398;-64
2021/06/27 20:40:28;;;;;;;9.02;5.80;;;;;;;21.37;46.50;100165.63;5157666;27;20123;-62
2021/06/27 20:42:57;;;;;;;9.55;5.50;;;;;;;21.40;45.95;100169.84;5134368;27;20047;-65
2021/06/27 20:45:24;;;;;;;9.93;5.95;;;;;;;21.38;46.21;100175.31;5137442;27;20043;-61
2021/06/27 20:47:52;;;;;;;9.10;5.88;;;;;;;21.39;46.59;100176.16;5132877;27;20062;-61
2021/06/27 20:50:21;;;;;;;9.65;6.00;;;;;;;21.34;46.81;100175.69;5134976;27;20085;-60
2021/06/27 20:52:51;;;;;;;11.82;5.90;;;;;;;21.31;46.86;100171.47;5134704;27;20043;-62
2021/06/27 20:55:21;;;;;;;10.35;6.18;;;;;;;21.26;46.57;100173.69;5131762;27;20385;-61
2021/06/27 20:57:49;;;;;;;7.85;6.10;;;;;;;21.20;46.79;100177.66;5127214;27;20424;-62
2021/06/27 21:00:18;;;;;;;10.05;5.38;;;;;;;21.15;46.94;100182.53;5131995;27;20062;-62
2021/06/27 21:02:45;;;;;;;7.47;5.82;;;;;;;21.11;47.03;100180.25;5131237;27;20122;-64
2021/06/27 21:05:13;;;;;;;7.60;5.95;;;;;;;21.05;47.00;100183.44;5130283;27;20043;-62
2021/06/27 21:07:41;;;;;;;7.75;6.43;;;;;;;20.98;47.17;100183.94;5132688;27;20571;-63
2021/06/27 21:10:10;;;;;;;9.52;5.85;;;;;;;20.96;47.03;100182.38;5137035;27;20050;-61
2021/06/27 21:12:37;;;;;;;8.52;5.95;;;;;;;20.88;47.22;100185.69;5134557;27;20420;-63
2021/06/27 21:15:08;;;;;;;9.95;5.63;;;;;;;20.81;47.26;100181.81;5130936;27;20059;-63
2021/06/27 21:17:36;;;;;;;7.90;5.40;;;;;;;20.78;47.46;100176.72;5130558;27;20039;-62
2021/06/27 21:20:05;;;;;;;7.97;5.57;;;;;;;20.72;47.34;100187.91;5129061;27;20043;-62
2021/06/27 21:22:33;;;;;;;9.65;5.80;;;;;;;20.67;47.49;100187.44;5131685;27;20100;-62
2021/06/27 21:25:00;;;;;;;7.05;5.25;;;;;;;20.64;47.24;100187.69;5130606;27;20035;-63
2021/06/27 21:27:28;;;;;;;8.75;5.38;;;;;;;20.62;47.48;100190.47;5131305;27;20398;-64
2021/06/27 21:29:56;;;;;;;8.15;5.43;;;;;;;20.57;47.17;100192.66;5130698;27;20042;-65
2021/06/27 21:32:24;;;;;;;6.45;5.18;;;;;;;20.56;47.77;100190.09;5134297;27;20039;-62
2021/06/27 21:34:52;;;;;;;7.60;5.43;;;;;;;20.57;47.62;100199.78;5134152;27;20120;-61
2021/06/27 21:37:19;;;;;;;5.70;4.82;;;;;;;20.54;47.76;100195.56;5132635;27;20043;-61
2021/06/27 21:39:47;;;;;;;6.03;5.00;;;;;;;20.52;47.71;100188.66;5141021;27;20058;-62
2021/06/27 21:42:14;;;;;;;7.47;5.25;;;;;;;20.48;47.55;100201.38;5138307;27;20035;-65
2021/06/27 21:44:42;;;;;;;8.57;5.05;;;;;;;20.45;47.47;100192.81;5133199;27;20042;-63
2021/06/27 21:47:10;;;;;;;6.47;4.65;;;;;;;20.41;47.39;100194.88;5137521;27;20115;-65
2021/06/27 21:49:39;;;;;;;8.23;4.68;;;;;;;20.38;47.83;100184.41;5130066;27;20106;-66
2021/06/27 21:52:08;;;;;;;5.45;4.22;;;;;;;20.37;47.74;100193.38;5118493;27;20135;-65
2021/06/27 21:54:35;;;;;;;6.30;4.15;;;;;;;20.32;47.42;100196.41;5120771;27;20066;-63
2021/06/27 21:57:04;;;;;;;5.68;4.10;;;;;;;20.32;47.71;100200.88;5119032;27;20141;-62
2021/06/27 21:59:33;;;;;;;8.07;5.10;;;;;;;20.28;47.46;100191.44;5120303;27;20031;-61
2021/06/27 22:02:12;;;;;;;8.65;4.88;;;;;;;20.25;47.74;100197.03;5118038;27;20035;-62
2021/06/27 22:04:41;;;;;;;6.72;4.43;;;;;;;20.24;47.56;100203.31;5119009;27;20039;-61
2021/06/27 22:07:09;;;;;;;7.97;4.43;;;;;;;20.23;47.79;100201.63;5128762;27;20035;-62
2021/06/27 22:09:36;;;;;;;4.93;4.32;;;;;;;20.21;47.74;100199.09;5120959;27;20085;-62
2021/06/27 22:12:05;;;;;;;6.97;5.20;;;;;;;20.20;48.29;100202.72;5109616;27;20550;-62
2021/06/27 22:14:33;;;;;;;9.80;5.50;;;;;;;20.15;48.14;100194.22;5119854;27;20046;-62
2021/06/27 22:17:03;;;;;;;8.13;5.28;;;;;;;20.16;48.43;100206.56;5125128;27;20510;-61
2021/06/27 22:19:33;;;;;;;6.80;5.22;;;;;;;20.17;48.50;100202.09;5122639;27;20125;-62
2021/06/27 22:22:03;;;;;;;8.50;4.80;;;;;;;20.12;47.94;100205.13;5115751;27;20567;-63
2021/06/27 22:24:31;;;;;;;8.05;5.75;;;;;;;20.10;48.28;100205.25;5120394;27;20048;-61
2021/06/27 22:26:59;;;;;;;7.38;5.70;;;;;;;20.06;48.43;100205.59;5115511;27;20493;-61
2021/06/27 22:29:29;;;;;;;6.55;4.95;;;;;;;20.03;48.14;100201.38;5116681;27;20127;-62
2021/06/27 22:31:56;;;;;;;7.55;5.65;;;;;;;20.04;48.37;100202.22;5117149;27;20396;-61
2021/06/27 22:34:24;;;;;;;6.15;4.90;;;;;;;20.02;48.42;100198.84;5119480;27;20445;-61
2021/06/27 22:36:52;;;;;;;7.15;5.00;;;;;;;20.01;48.47;100202.47;5117572;27;20059;-60
2021/06/27 22:39:22;;;;;;;8.70;5.57;;;;;;;19.98;48.30;100203.53;5127446;27;20101;-62
2021/06/27 22:41:49;;;;;;;7.35;5.20;;;;;;;19.99;48.42;100201.72;5123265;27;20101;-62
2021/06/27 22:44:21;;;;;;;7.88;5.20;;;;;;;19.97;48.09;100199.19;5125413;27;20126;-63
2021/06/27 22:46:49;;;;;;;5.80;4.63;;;;;;;19.94;48.51;100199.41;5117266;27;20031;-63
2021/06/27 22:49:16;;;;;;;5.47;4.70;;;;;;;19.90;48.81;100205.94;5126764;27;20039;-62
2021/06/27 22:51:44;;;;;;;8.63;5.28;;;;;;;19.88;48.70;100207.03;5123057;27;20459;-62
2021/06/27 22:54:12;;;;;;;11.27;5.22;;;;;;;19.84;49.04;100205.59;5120283;27;20570;-62
2021/06/27 22:56:41;;;;;;;7.45;4.82;;;;;;;19.79;49.07;100204.13;5122774;27;20077;-62
2021/06/27 22:59:09;;;;;;;6.47;4.50;;;;;;;19.77;49.20;100203.38;5125134;27;20043;-62
2021/06/27 23:01:36;;;;;;;6.50;4.93;;;;;;;19.76;48.87;100209.66;5122503;27;20460;-62
2021/06/27 23:04:04;;;;;;;10.48;5.18;;;;;;;19.74;49.11;100203.63;5121517;27;20705;-61
2021/06/27 23:06:32;;;;;;;7.78;4.53;;;;;;;19.72;49.47;100216.19;5118601;27;20051;-60
2021/06/27 23:09:00;;;;;;;6.28;4.63;;;;;;;19.70;49.19;100204.84;5121937;27;20067;-61
2021/06/27 23:11:27;;;;;;;7.15;4.72;;;;;;;19.70;49.40;100209.31;5123071;27;20043;-62
2021/06/27 23:13:56;;;;;;;6.20;4.22;;;;;;;19.67;49.60;100199.75;5126547;27;20070;-61
2021/06/27 23:16:24;;;;;;;8.38;4.32;;;;;;;19.64;49.26;100205.31;5122616;27;20191;-61
2021/06/27 23:18:51;;;;;;;6.47;4.88;;;;;;;19.61;49.71;100205.53;5120411;27;20050;-60
2021/06/27 23:21:19;;;;;;;5.40;4.43;;;;;;;19.58;50.02;100199.63;5126520;27;20050;-61
2021/06/27 23:23:46;;;;;;;7.40;4.38;;;;;;;19.56;49.60;100201.53;5123974;27;20444;-60
2021/06/27 23:26:14;;;;;;;7.75;4.80;;;;;;;19.54;49.90;100204.31;5124323;27;20057;-59
2021/06/27 23:28:41;;;;;;;7.90;5.07;;;;;;;19.54;49.61;100209.63;5116775;27;20575;-64
2021/06/27 23:31:11;;;;;;;8.63;4.90;;;;;;;19.54;49.80;100203.47;5120007;27;20035;-64
2021/06/27 23:33:38;;;;;;;6.35;4.72;;;;;;;19.53;49.54;100209.69;5120476;27;20058;-67
2021/06/27 23:36:06;;;;;;;6.05;4.63;;;;;;;19.50;49.69;100205.47;5117251;27;20054;-66
2021/06/27 23:38:33;;;;;;;9.30;5.10;;;;;;;19.50;49.46;100213.44;5124242;27;20158;-65
2021/06/27 23:41:01;;;;;;;6.18;4.65;;;;;;;19.46;49.72;100217.31;5124988;27;20047;-65
2021/06/27 23:43:28;;;;;;;7.93;5.43;;;;;;;19.45;50.06;100210.31;5119319;27;20063;-65
2021/06/27 23:45:59;;;;;;;6.20;4.72;;;;;;;19.45;49.54;100212.97;5120183;27;20099;-65
2021/06/27 23:48:27;;;;;;;6.15;4.68;;;;;;;19.43;49.86;100213.06;5125636;27;20500;-67
2021/06/27 23:50:55;;;;;;;6.65;4.65;;;;;;;19.41;49.87;100216.81;5123255;27;20385;-67
2021/06/27 23:53:22;;;;;;;5.15;4.43;;;;;;;19.39;49.69;100208.97;5121767;27;20039;-67
2021/06/27 23:55:50;;;;;;;6.85;4.50;;;;;;;19.39;49.54;100213.44;5121716;27;20118;-66
2021/06/27 23:58:18;;;;;;;6.15;4.30;;;;;;;19.41;49.64;100216.81;5120455;27;20120;-66
